createdAt,value
2022-12-11T00:01:44.597Z,9.45
2022-12-11T00:04:13.011Z,10.30
2022-12-11T00:06:42.328Z,10.50
2022-12-11T00:09:12.243Z,9.52
2022-12-11T00:11:42.030Z,10.35
2022-12-11T00:14:10.467Z,9.85
2022-12-11T00:16:39.344Z,10.70
2022-12-11T00:19:08.024Z,10.38
2022-12-11T00:21:36.550Z,8.77
2022-12-11T00:24:05.795Z,11.45
2022-12-11T00:26:34.354Z,10.00
2022-12-11T00:29:04.205Z,10.32
2022-12-11T00:31:32.866Z,10.82
2022-12-11T00:34:03.283Z,10.63
2022-12-11T00:36:31.725Z,10.57
2022-12-11T00:39:00.194Z,10.13
2022-12-11T00:41:28.671Z,10.75
2022-12-11T00:43:57.110Z,9.77
2022-12-11T00:46:27.375Z,11.00
2022-12-11T00:48:55.849Z,9.70
2022-12-11T00:51:24.463Z,10.70
2022-12-11T00:53:53.555Z,10.52
2022-12-11T00:56:24.573Z,10.02
2022-12-11T00:58:53.213Z,9.68
2022-12-11T01:01:24.539Z,8.88
2022-12-11T01:03:58.014Z,11.43
2022-12-11T01:06:29.032Z,10.05
2022-12-11T01:09:12.500Z,10.07
2022-12-11T01:11:42.633Z,8.93
2022-12-11T01:14:14.663Z,9.50
2022-12-11T01:16:43.148Z,9.90
2022-12-11T01:19:13.000Z,10.75
2022-12-11T01:21:41.698Z,10.02
2022-12-11T01:24:10.146Z,9.40
2022-12-11T01:26:38.639Z,9.95
2022-12-11T01:29:07.062Z,9.48
2022-12-11T01:31:35.558Z,9.95
2022-12-11T01:34:03.982Z,8.70
2022-12-11T01:36:33.805Z,11.25
2022-12-11T01:39:02.390Z,9.40
2022-12-11T01:41:30.892Z,9.45
2022-12-11T01:44:02.382Z,9.82
2022-12-11T01:46:33.814Z,10.13
2022-12-11T01:49:06.271Z,10.32
2022-12-11T01:51:42.321Z,8.55
2022-12-11T01:54:15.871Z,9.65
2022-12-11T01:56:47.639Z,10.27
2022-12-11T01:59:22.134Z,9.50
2022-12-11T02:01:58.137Z,9.93
2022-12-11T02:04:29.055Z,8.73
2022-12-11T02:06:59.029Z,9.43
2022-12-11T02:09:32.423Z,11.10
2022-12-11T02:12:09.960Z,8.70
2022-12-11T02:14:45.881Z,9.63
2022-12-11T02:17:22.685Z,9.02
2022-12-11T02:20:06.578Z,10.65
2022-12-11T02:23:07.178Z,8.55
2022-12-11T02:25:47.949Z,8.55
2022-12-11T02:28:24.055Z,9.95
2022-12-11T02:30:58.354Z,11.10
2022-12-11T02:33:38.312Z,9.30
2022-12-11T02:36:11.042Z,9.65
2022-12-11T02:38:43.923Z,9.25
2022-12-11T02:41:13.653Z,9.93
2022-12-11T02:43:45.543Z,10.13
2022-12-11T02:46:15.410Z,10.55
2022-12-11T02:48:46.347Z,9.38
2022-12-11T02:51:20.457Z,9.20
2022-12-11T02:53:52.362Z,10.55
2022-12-11T02:56:30.288Z,11.10
2022-12-11T02:59:07.184Z,10.13
2022-12-11T03:01:35.949Z,9.57
2022-12-11T03:04:04.567Z,10.68
2022-12-11T03:06:39.073Z,9.75
2022-12-11T03:09:09.340Z,10.10
2022-12-11T03:11:37.804Z,10.10
2022-12-11T03:14:09.271Z,10.73
2022-12-11T03:16:43.604Z,9.93
2022-12-11T03:19:25.424Z,9.73
2022-12-11T03:21:59.028Z,10.40
2022-12-11T03:24:35.597Z,9.18
2022-12-11T03:27:16.572Z,11.02
2022-12-11T03:29:57.031Z,10.82
2022-12-11T03:32:30.849Z,9.60
2022-12-11T03:35:09.977Z,10.38
2022-12-11T03:37:42.104Z,10.70
2022-12-11T03:40:18.375Z,10.43
2022-12-11T03:42:53.036Z,10.80
2022-12-11T03:45:27.087Z,9.65
2022-12-11T03:48:01.389Z,12.23
2022-12-11T03:50:34.569Z,11.82
2022-12-11T03:53:05.592Z,10.40
2022-12-11T03:55:38.117Z,12.50
2022-12-11T03:58:07.061Z,11.65
2022-12-11T04:00:37.221Z,12.05
2022-12-11T04:03:15.089Z,11.77
2022-12-11T04:05:46.183Z,12.18
2022-12-11T04:08:15.384Z,11.73
2022-12-11T04:10:44.673Z,10.25
2022-12-11T04:13:13.646Z,10.95
2022-12-11T04:15:42.483Z,10.85
2022-12-11T04:18:29.333Z,11.38
2022-12-11T04:21:15.552Z,11.95
2022-12-11T04:24:01.605Z,10.88
2022-12-11T04:26:29.992Z,9.82
2022-12-11T04:28:58.520Z,10.88
2022-12-11T04:31:29.882Z,11.23
2022-12-11T04:33:58.491Z,11.65
2022-12-11T04:36:26.924Z,10.95
2022-12-11T04:38:55.368Z,12.40
2022-12-11T04:41:23.889Z,11.95
2022-12-11T04:43:52.320Z,12.43
2022-12-11T04:46:23.770Z,11.38
2022-12-11T04:48:57.712Z,13.57
2022-12-11T04:51:26.909Z,12.80
2022-12-11T04:53:55.366Z,11.93
2022-12-11T04:56:23.888Z,12.85
2022-12-11T04:58:52.318Z,12.18
2022-12-11T05:01:23.664Z,12.15
2022-12-11T05:03:53.593Z,14.05
2022-12-11T05:06:22.080Z,13.27
2022-12-11T05:08:50.532Z,13.52
2022-12-11T05:11:19.328Z,13.20
2022-12-11T05:13:47.877Z,13.32
2022-12-11T05:16:18.445Z,13.15
2022-12-11T05:18:47.822Z,13.50
2022-12-11T05:21:17.850Z,14.00
2022-12-11T05:23:46.416Z,12.10
2022-12-11T05:26:18.012Z,14.48
2022-12-11T05:28:46.978Z,13.88
2022-12-11T05:31:19.346Z,16.80
2022-12-11T05:33:50.223Z,14.82
2022-12-11T05:36:22.883Z,14.18
2022-12-11T05:38:52.938Z,16.05
2022-12-11T05:41:26.129Z,15.55
2022-12-11T05:43:55.536Z,14.57
2022-12-11T05:46:26.828Z,14.77
2022-12-11T05:48:58.708Z,14.63
2022-12-11T05:51:29.895Z,16.10
2022-12-11T05:53:59.387Z,14.32
2022-12-11T05:56:31.697Z,15.27
2022-12-11T05:59:03.412Z,14.52
2022-12-11T06:01:35.266Z,15.32
2022-12-11T06:04:05.991Z,13.00
2022-12-11T06:06:37.284Z,14.70
2022-12-11T06:09:07.856Z,13.48
2022-12-11T06:11:37.435Z,14.82
2022-12-11T06:14:05.928Z,13.15
2022-12-11T06:16:35.453Z,15.35
2022-12-11T06:19:04.154Z,14.95
2022-12-11T06:21:35.290Z,15.20
2022-12-11T06:24:05.615Z,17.10
2022-12-11T06:26:34.258Z,14.85
2022-12-11T06:29:06.254Z,16.23
2022-12-11T06:31:37.415Z,14.38
2022-12-11T06:34:06.002Z,13.88
2022-12-11T06:36:35.992Z,17.35
2022-12-11T06:39:04.784Z,14.52
2022-12-11T06:41:33.271Z,13.90
2022-12-11T06:44:01.828Z,14.05
2022-12-11T06:46:30.386Z,13.45
2022-12-11T06:48:58.801Z,13.00
2022-12-11T06:51:27.392Z,16.50
2022-12-11T06:53:58.533Z,13.95
2022-12-11T06:56:27.044Z,15.35
2022-12-11T06:58:57.116Z,13.57
2022-12-11T07:01:29.128Z,14.23
2022-12-11T07:04:00.142Z,13.68
2022-12-11T07:06:30.221Z,13.70
2022-12-11T07:09:00.077Z,14.50
2022-12-11T07:11:28.537Z,12.52
2022-12-11T07:13:59.653Z,12.98
2022-12-11T07:16:28.744Z,18.15
2022-12-11T07:18:57.428Z,16.95
2022-12-11T07:21:25.919Z,14.57
2022-12-11T07:23:54.654Z,15.77
2022-12-11T07:26:24.486Z,16.92
2022-12-11T07:28:53.433Z,14.18
2022-12-11T07:31:24.898Z,14.05
2022-12-11T07:33:55.937Z,15.70
2022-12-11T07:36:25.584Z,15.20
2022-12-11T07:38:54.788Z,15.40
2022-12-11T07:41:24.940Z,13.52
2022-12-11T07:43:57.289Z,16.35
2022-12-11T07:46:30.092Z,17.02
2022-12-11T07:48:59.443Z,14.88
2022-12-11T07:51:31.607Z,14.88
2022-12-11T07:54:03.258Z,20.55
2022-12-11T07:56:35.995Z,21.15
2022-12-11T07:59:16.596Z,17.40
2022-12-11T08:01:46.055Z,15.55
2022-12-11T08:04:15.918Z,16.05
2022-12-11T08:06:44.873Z,17.10
2022-12-11T08:09:21.079Z,16.85
2022-12-11T08:11:52.303Z,15.45
2022-12-11T08:14:21.741Z,16.88
2022-12-11T08:16:50.919Z,18.38
2022-12-11T08:19:19.634Z,16.08
2022-12-11T08:22:37.639Z,16.67
2022-12-11T08:25:07.605Z,17.10
2022-12-11T08:27:37.510Z,17.58
2022-12-11T08:30:08.330Z,22.52
2022-12-11T08:32:40.975Z,17.15
2022-12-11T08:35:10.866Z,19.25
2022-12-11T08:37:40.163Z,17.33
2022-12-11T08:40:12.300Z,19.00
2022-12-11T08:42:42.282Z,18.63
2022-12-11T08:45:12.234Z,18.35
2022-12-11T08:47:41.225Z,18.45
2022-12-11T08:50:18.603Z,17.90
2022-12-11T08:52:51.507Z,18.10
2022-12-11T08:55:22.003Z,18.75
2022-12-11T08:57:52.023Z,18.25
2022-12-11T09:00:36.790Z,19.63
2022-12-11T09:03:28.674Z,21.30
2022-12-11T09:06:30.351Z,21.50
2022-12-11T09:09:02.152Z,19.38
2022-12-11T09:11:33.496Z,17.48
2022-12-11T09:19:04.533Z,17.83
2022-12-11T09:22:13.560Z,16.50
2022-12-11T09:24:43.115Z,17.02
2022-12-11T09:27:12.527Z,15.55
2022-12-11T09:29:44.723Z,14.63
2022-12-11T09:32:18.405Z,18.42
2022-12-11T09:34:47.146Z,15.40
2022-12-11T09:37:15.649Z,14.45
2022-12-11T09:39:44.218Z,14.80
2022-12-11T09:42:24.509Z,15.70
2022-12-11T09:45:04.107Z,15.48
2022-12-11T09:47:39.499Z,14.98
2022-12-11T09:50:19.432Z,16.02
2022-12-11T09:53:05.491Z,13.95
2022-12-11T09:55:46.525Z,14.57
2022-12-11T09:58:27.193Z,14.20
2022-12-11T10:01:55.181Z,14.82
2022-12-11T10:04:45.030Z,13.63
2022-12-11T10:07:24.081Z,13.32
2022-12-11T10:10:04.938Z,12.52
2022-12-11T10:12:49.273Z,13.13
2022-12-11T10:16:45.275Z,14.18
2022-12-11T10:19:21.164Z,12.60
2022-12-11T10:21:53.575Z,12.75
2022-12-11T10:25:07.467Z,14.40
2022-12-11T10:27:27.105Z,12.38
2022-12-11T10:30:18.787Z,11.90
2022-12-11T10:32:54.609Z,12.93
2022-12-11T10:35:53.213Z,13.75
2022-12-11T10:38:50.589Z,13.40
2022-12-11T10:41:24.632Z,11.23
2022-12-11T10:43:57.629Z,14.38
2022-12-11T10:46:29.855Z,12.05
2022-12-11T10:49:01.454Z,13.13
2022-12-11T10:51:38.608Z,11.00
2022-12-11T10:54:18.490Z,11.27
2022-12-11T10:57:13.243Z,10.05
2022-12-11T11:00:02.724Z,8.93
2022-12-11T11:02:37.274Z,9.07
2022-12-11T11:05:16.841Z,8.93
2022-12-11T11:08:05.669Z,8.60
2022-12-11T11:10:35.618Z,8.85
2022-12-11T11:13:04.619Z,8.23
2022-12-11T11:15:34.230Z,8.43
2022-12-11T11:18:25.392Z,8.25
2022-12-11T11:20:55.396Z,6.32
2022-12-11T11:23:27.297Z,8.18
2022-12-11T11:26:01.785Z,6.20
2022-12-11T11:28:37.292Z,6.32
2022-12-11T11:31:11.576Z,5.97
2022-12-11T11:33:56.020Z,5.68
2022-12-11T11:40:09.308Z,6.55
2022-12-11T11:43:22.619Z,7.35
2022-12-11T11:46:01.848Z,6.25
2022-12-11T11:48:41.428Z,6.30
2022-12-11T11:52:48.577Z,5.93
2022-12-11T11:59:48.244Z,6.78
2022-12-11T12:02:20.112Z,4.90
2022-12-11T12:04:54.587Z,6.60
2022-12-11T12:07:46.985Z,8.43
2022-12-11T12:10:25.132Z,7.72
2022-12-11T12:13:23.855Z,8.88
2022-12-11T12:15:59.684Z,5.60
2022-12-11T12:18:44.755Z,4.67
2022-12-11T12:21:25.595Z,4.72
2022-12-11T12:24:19.379Z,5.10
2022-12-11T12:26:56.980Z,4.55
2022-12-11T12:29:55.485Z,4.90
2022-12-11T12:32:33.612Z,4.17
2022-12-11T12:35:17.674Z,4.47
2022-12-11T12:38:00.509Z,3.27
2022-12-11T12:40:37.157Z,3.38
2022-12-11T12:43:45.576Z,3.05
2022-12-11T12:46:30.040Z,2.73
2022-12-11T12:49:02.521Z,2.38
2022-12-11T12:51:32.694Z,3.40
2022-12-11T12:54:12.330Z,3.30
2022-12-11T12:56:43.651Z,3.88
2022-12-11T12:59:22.735Z,3.60
2022-12-11T13:01:58.661Z,2.92
2022-12-11T13:04:55.647Z,3.10
2022-12-11T13:07:30.708Z,3.92
2022-12-11T13:10:28.690Z,4.88
2022-12-11T13:12:57.875Z,4.13
2022-12-11T13:18:54.342Z,3.83
2022-12-11T13:21:32.780Z,3.30
2022-12-11T13:24:25.600Z,4.03
2022-12-11T13:26:54.889Z,4.30
2022-12-11T13:29:34.968Z,4.10
2022-12-11T13:35:22.304Z,4.25
2022-12-11T13:37:55.388Z,4.78
2022-12-11T13:40:30.901Z,8.63
2022-12-11T13:43:04.901Z,4.93
2022-12-11T13:45:45.529Z,5.18
2022-12-11T13:48:23.897Z,4.93
2022-12-11T13:50:57.354Z,4.97
2022-12-11T13:53:26.267Z,5.25
2022-12-11T13:56:11.255Z,4.85
2022-12-11T13:58:42.452Z,4.68
2022-12-11T14:01:17.158Z,6.20
2022-12-11T14:03:55.970Z,5.80
2022-12-11T14:06:31.769Z,5.85
2022-12-11T14:09:05.457Z,5.72
2022-12-11T14:11:40.057Z,6.57
2022-12-11T14:14:29.375Z,6.95
2022-12-11T14:16:58.264Z,6.95
2022-12-11T14:19:26.975Z,6.13
2022-12-11T14:22:03.727Z,6.32
2022-12-11T14:27:25.755Z,6.28
2022-12-11T14:29:55.712Z,6.53
2022-12-11T14:32:52.863Z,6.57
2022-12-11T14:35:30.154Z,6.82
2022-12-11T14:38:12.433Z,7.22
2022-12-11T14:40:48.510Z,6.35
2022-12-11T14:43:25.724Z,6.85
2022-12-11T14:46:11.956Z,6.32
2022-12-11T14:49:18.283Z,6.00
2022-12-11T14:51:48.479Z,7.13
2022-12-11T14:54:30.581Z,6.03
2022-12-11T14:57:16.935Z,6.28
2022-12-11T15:00:31.065Z,10.00
2022-12-11T15:03:03.565Z,10.65
2022-12-11T15:05:40.320Z,7.00
2022-12-11T15:08:25.502Z,8.38
2022-12-11T15:11:09.794Z,7.15
2022-12-11T15:13:55.175Z,5.30
2022-12-11T15:16:29.430Z,6.95
2022-12-11T15:18:58.852Z,6.30
2022-12-11T15:21:40.411Z,5.60
2022-12-11T15:24:29.480Z,6.15
2022-12-11T15:27:01.936Z,5.78
2022-12-11T15:29:38.499Z,5.55
2022-12-11T15:32:27.276Z,6.93
2022-12-11T15:35:00.618Z,5.68
2022-12-11T15:37:32.919Z,5.80
2022-12-11T15:40:05.534Z,5.13
2022-12-11T15:42:39.689Z,4.85
2022-12-11T15:45:18.056Z,5.50
2022-12-11T15:47:48.687Z,6.00
2022-12-11T15:50:21.456Z,6.45
2022-12-11T15:52:52.731Z,6.78
2022-12-11T15:55:23.240Z,6.47
2022-12-11T15:57:57.537Z,6.40
2022-12-11T16:00:28.089Z,6.93
2022-12-11T16:02:57.145Z,7.10
2022-12-11T16:05:27.073Z,6.00
2022-12-11T16:07:59.422Z,5.45
2022-12-11T16:10:28.782Z,6.13
2022-12-11T16:13:02.996Z,6.50
2022-12-11T16:15:31.959Z,6.25
2022-12-11T16:18:03.346Z,7.22
2022-12-11T16:20:32.897Z,7.68
2022-12-11T16:23:03.492Z,7.05
2022-12-11T16:25:32.802Z,7.25
2022-12-11T16:28:03.828Z,7.03
2022-12-11T16:30:32.620Z,8.55
2022-12-11T16:33:01.163Z,7.90
2022-12-11T16:35:31.147Z,8.55
2022-12-11T16:38:18.850Z,6.28
2022-12-11T16:40:49.195Z,6.35
2022-12-11T16:43:19.079Z,7.78
2022-12-11T16:45:47.547Z,7.95
2022-12-11T16:48:16.360Z,7.35
2022-12-11T16:50:44.961Z,7.45
2022-12-11T16:53:14.688Z,7.28
2022-12-11T16:55:44.165Z,6.28
2022-12-11T16:58:16.292Z,8.85
2022-12-11T17:00:46.663Z,7.15
2022-12-11T17:03:15.220Z,6.18
2022-12-11T17:05:44.703Z,6.40
2022-12-11T17:08:14.083Z,5.50
2022-12-11T17:10:43.908Z,8.20
2022-12-11T17:13:12.492Z,6.30
2022-12-11T17:15:43.319Z,4.95
2022-12-11T17:18:13.957Z,3.95
2022-12-11T17:20:43.568Z,4.40
2022-12-11T17:23:14.619Z,4.60
2022-12-11T17:25:43.739Z,6.15
2022-12-11T17:28:13.811Z,5.68
2022-12-11T17:30:44.078Z,5.97
2022-12-11T17:33:14.188Z,4.82
2022-12-11T17:35:42.767Z,5.07
2022-12-11T17:38:12.031Z,5.68
2022-12-11T17:40:42.644Z,5.93
2022-12-11T17:43:13.355Z,5.57
2022-12-11T17:45:43.318Z,5.45
2022-12-11T17:48:14.110Z,7.18
2022-12-11T17:50:42.988Z,6.60
2022-12-11T17:53:12.894Z,6.45
2022-12-11T17:55:43.377Z,6.47
2022-12-11T17:58:12.717Z,6.18
2022-12-11T18:00:43.804Z,6.03
2022-12-11T18:03:14.811Z,8.23
2022-12-11T18:05:44.845Z,6.50
2022-12-11T18:08:15.379Z,7.10
2022-12-11T18:10:44.423Z,5.90
2022-12-11T18:13:13.960Z,6.35
2022-12-11T18:15:43.284Z,5.07
2022-12-11T18:18:13.686Z,5.78
2022-12-11T18:20:42.197Z,5.38
2022-12-11T18:23:10.731Z,4.30
2022-12-11T18:25:39.278Z,4.00
2022-12-11T18:28:07.970Z,4.20
2022-12-11T18:30:36.621Z,3.65
2022-12-11T18:33:05.336Z,4.30
2022-12-11T18:35:35.368Z,3.80
2022-12-11T18:38:03.963Z,4.55
2022-12-11T18:40:32.771Z,3.75
2022-12-11T18:43:01.558Z,3.60
2022-12-11T18:45:30.368Z,4.32
2022-12-11T18:47:59.387Z,4.22
2022-12-11T18:50:30.313Z,4.30
2022-12-11T18:53:01.035Z,5.57
2022-12-11T18:55:29.738Z,3.90
2022-12-11T18:57:58.286Z,4.03
2022-12-11T19:00:30.146Z,4.57
2022-12-11T19:02:58.857Z,4.15
2022-12-11T19:05:28.080Z,5.55
2022-12-11T19:07:57.740Z,4.22
2022-12-11T19:10:28.577Z,4.10
2022-12-11T19:12:57.287Z,5.07
2022-12-11T19:15:25.839Z,4.75
2022-12-11T19:17:54.444Z,3.95
2022-12-11T19:20:48.153Z,4.60
2022-12-11T19:23:12.850Z,4.82
2022-12-11T19:25:46.614Z,4.95
2022-12-11T19:28:16.781Z,4.88
2022-12-11T19:30:46.029Z,5.10
2022-12-11T19:33:15.309Z,4.78
2022-12-11T19:35:44.907Z,6.90
2022-12-11T19:38:13.806Z,5.38
2022-12-11T19:40:45.749Z,5.47
2022-12-11T19:43:14.311Z,5.22
2022-12-11T19:45:43.199Z,4.95
2022-12-11T19:48:13.346Z,5.38
2022-12-11T19:50:43.067Z,5.68
2022-12-11T19:53:12.158Z,5.95
2022-12-11T19:55:42.192Z,7.55
2022-12-11T19:58:12.226Z,7.53
2022-12-11T20:00:42.061Z,7.47
2022-12-11T20:03:10.748Z,7.10
2022-12-11T20:05:41.747Z,6.90
2022-12-11T20:11:06.822Z,13.80
2022-12-11T20:13:40.552Z,10.55
2022-12-11T20:16:11.467Z,14.48
2022-12-11T20:18:40.681Z,7.38
2022-12-11T20:21:14.932Z,9.07
2022-12-11T20:23:52.503Z,7.40
2022-12-11T20:26:25.810Z,7.95
2022-12-11T20:28:57.030Z,7.72
2022-12-11T20:31:27.095Z,6.85
2022-12-11T20:33:58.235Z,7.53
2022-12-11T20:36:27.537Z,8.30
2022-12-11T20:38:56.496Z,8.48
2022-12-11T20:41:26.808Z,9.00
2022-12-11T20:43:57.799Z,8.13
2022-12-11T20:46:28.282Z,7.57
2022-12-11T20:48:59.489Z,7.70
2022-12-11T20:51:29.124Z,7.80
2022-12-11T20:53:59.527Z,7.82
2022-12-11T20:56:31.702Z,7.20
2022-12-11T20:59:02.168Z,7.90
2022-12-11T21:01:33.733Z,7.13
2022-12-11T21:04:57.892Z,8.15
2022-12-11T21:07:28.494Z,9.32
2022-12-11T21:09:56.992Z,8.82
2022-12-11T21:12:31.398Z,8.70
2022-12-11T21:15:03.410Z,8.70
2022-12-11T21:17:33.287Z,9.52
2022-12-11T21:20:01.989Z,8.55
2022-12-11T21:22:33.456Z,11.10
2022-12-11T21:25:02.031Z,9.10
2022-12-11T21:27:30.832Z,9.95
2022-12-11T21:29:59.453Z,8.00
2022-12-11T21:32:29.986Z,10.40
2022-12-11T21:35:01.484Z,8.15
2022-12-11T21:37:30.553Z,8.45
2022-12-11T21:39:59.187Z,7.22
2022-12-11T21:42:28.735Z,8.32
2022-12-11T21:45:37.558Z,8.07
2022-12-11T21:47:47.482Z,9.38
2022-12-11T21:50:16.027Z,8.48
2022-12-11T21:52:44.740Z,9.48
2022-12-11T21:55:14.147Z,9.88
2022-12-11T21:57:42.856Z,9.52
2022-12-11T22:00:13.364Z,8.02
2022-12-11T22:02:42.070Z,10.93
2022-12-11T22:05:12.570Z,8.20
2022-12-11T22:07:41.249Z,9.10
2022-12-11T22:10:11.118Z,8.25
2022-12-11T22:12:39.886Z,8.55
2022-12-11T22:15:10.884Z,8.50
2022-12-11T22:17:39.911Z,8.25
2022-12-11T22:20:10.045Z,8.55
2022-12-11T22:22:40.102Z,8.27
2022-12-11T22:25:09.770Z,7.93
2022-12-11T22:27:38.504Z,8.40
2022-12-11T22:30:08.907Z,8.55
2022-12-11T22:32:37.334Z,8.73
2022-12-11T22:35:07.135Z,8.00
2022-12-11T22:37:38.801Z,7.55
2022-12-11T22:40:08.292Z,7.10
2022-12-11T22:42:38.521Z,7.07
2022-12-11T22:45:12.063Z,7.55
2022-12-11T22:47:40.753Z,7.93
2022-12-11T22:50:11.644Z,9.60
2022-12-11T22:52:41.670Z,8.15
2022-12-11T22:55:11.068Z,8.13
2022-12-11T22:57:40.314Z,8.35
2022-12-11T23:00:13.364Z,7.00
2022-12-11T23:02:42.863Z,8.10
2022-12-11T23:05:12.764Z,8.07
2022-12-11T23:07:43.361Z,7.45
2022-12-11T23:10:12.317Z,7.10
2022-12-11T23:12:41.006Z,7.45
2022-12-11T23:15:11.430Z,7.82
2022-12-11T23:17:40.383Z,6.55
2022-12-11T23:20:10.797Z,6.95
2022-12-11T23:22:39.364Z,7.10
2022-12-11T23:25:13.242Z,6.65
2022-12-11T23:27:42.233Z,6.80
2022-12-11T23:30:12.483Z,6.45
2022-12-11T23:32:40.912Z,7.60
2022-12-11T23:35:10.742Z,7.22
2022-12-11T23:37:39.276Z,6.25
2022-12-11T23:40:11.122Z,7.45
2022-12-11T23:42:39.532Z,8.15
2022-12-11T23:45:09.040Z,5.78
2022-12-11T23:47:37.620Z,6.88
2022-12-11T23:50:07.183Z,7.05
2022-12-11T23:52:35.627Z,7.32
2022-12-11T23:55:04.176Z,6.00
2022-12-11T23:57:34.889Z,6.38
